createdAt,value
2023-04-28T00:01:51.478Z,8.90
2023-04-28T00:04:26.048Z,8.90
2023-04-28T00:07:00.543Z,8.90
2023-04-28T00:09:34.544Z,8.90
2023-04-28T00:12:09.974Z,9.00
2023-04-28T00:14:44.124Z,9.00
2023-04-28T00:17:18.425Z,9.00
2023-04-28T00:19:53.027Z,9.00
2023-04-28T00:22:27.126Z,9.00
2023-04-28T00:25:01.325Z,9.00
2023-04-28T00:27:37.247Z,9.00
2023-04-28T00:30:12.577Z,9.00
2023-04-28T00:32:46.844Z,9.00
2023-04-28T00:35:21.589Z,9.00
2023-04-28T00:37:56.153Z,9.00
2023-04-28T00:40:34.935Z,9.00
2023-04-28T00:43:10.360Z,9.10
2023-04-28T00:45:44.466Z,9.10
2023-04-28T00:48:19.537Z,9.10
2023-04-28T00:50:53.850Z,9.00
2023-04-28T00:53:28.423Z,9.00
2023-04-28T00:56:02.558Z,9.00
2023-04-28T00:58:38.921Z,9.10
2023-04-28T01:01:13.099Z,9.10
2023-04-28T01:03:47.361Z,9.10
2023-04-28T01:06:22.254Z,9.00
2023-04-28T01:08:57.546Z,9.00
2023-04-28T01:11:31.590Z,9.00
2023-04-28T01:14:07.014Z,9.00
2023-04-28T01:16:42.374Z,9.00
2023-04-28T01:19:23.390Z,9.00
2023-04-28T01:21:57.773Z,8.90
2023-04-28T01:24:33.182Z,8.90
2023-04-28T01:27:07.349Z,9.00
2023-04-28T01:29:41.360Z,8.90
2023-04-28T01:32:15.558Z,8.90
2023-04-28T01:34:49.683Z,9.00
2023-04-28T01:37:26.800Z,9.00
2023-04-28T01:40:02.196Z,9.10
2023-04-28T01:42:36.231Z,9.10
2023-04-28T01:45:11.992Z,9.10
2023-04-28T01:47:46.107Z,9.10
2023-04-28T01:50:20.693Z,9.10
2023-04-28T01:52:54.783Z,9.10
2023-04-28T01:55:30.264Z,9.20
2023-04-28T01:58:04.582Z,9.20
2023-04-28T02:00:38.678Z,9.20
2023-04-28T02:03:12.932Z,9.20
2023-04-28T02:05:47.397Z,9.20
2023-04-28T02:08:21.784Z,9.20
2023-04-28T02:10:58.056Z,9.20
2023-04-28T02:13:32.143Z,9.10
2023-04-28T02:16:07.197Z,9.10
2023-04-28T02:18:41.361Z,9.10
2023-04-28T02:21:15.550Z,9.10
2023-04-28T02:23:50.496Z,9.20
2023-04-28T02:26:27.065Z,9.20
2023-04-28T02:29:01.190Z,9.20
2023-04-28T02:31:35.481Z,9.20
2023-04-28T02:34:09.599Z,9.20
2023-04-28T02:36:43.688Z,9.20
2023-04-28T02:39:17.683Z,9.20
2023-04-28T02:41:53.266Z,9.30
2023-04-28T02:44:27.596Z,9.30
2023-04-28T02:47:01.895Z,9.40
2023-04-28T02:49:36.170Z,9.30
2023-04-28T02:52:10.223Z,9.30
2023-04-28T02:54:44.254Z,9.30
2023-04-28T02:57:20.023Z,9.40
2023-04-28T02:59:54.498Z,9.40
2023-04-28T03:02:28.703Z,9.30
2023-04-28T03:05:03.007Z,9.30
2023-04-28T03:07:37.448Z,9.30
2023-04-28T03:10:11.795Z,9.30
2023-04-28T03:12:47.253Z,9.30
2023-04-28T03:15:21.775Z,9.30
2023-04-28T03:17:55.829Z,9.30
2023-04-28T03:20:30.004Z,9.30
2023-04-28T03:23:04.471Z,9.40
2023-04-28T03:25:38.533Z,9.40
2023-04-28T03:28:13.990Z,9.30
2023-04-28T03:30:48.155Z,9.40
2023-04-28T03:33:22.352Z,9.40
2023-04-28T03:35:56.516Z,9.40
2023-04-28T03:38:30.573Z,9.40
2023-04-28T03:41:04.818Z,9.40
2023-04-28T03:43:40.178Z,9.50
2023-04-28T03:46:14.397Z,9.50
2023-04-28T03:48:48.475Z,9.40
2023-04-28T03:51:23.013Z,9.40
2023-04-28T03:53:57.416Z,9.40
2023-04-28T03:56:31.476Z,9.50
2023-04-28T03:59:06.924Z,9.50
2023-04-28T04:01:41.096Z,9.50
2023-04-28T04:04:15.487Z,9.50
2023-04-28T04:06:50.143Z,9.50
2023-04-28T04:09:24.679Z,9.60
2023-04-28T04:11:58.849Z,9.50
2023-04-28T04:14:34.447Z,9.50
2023-04-28T04:17:08.533Z,9.50
2023-04-28T04:19:42.673Z,9.50
2023-04-28T04:22:16.690Z,9.60
2023-04-28T04:24:51.087Z,9.60
2023-04-28T04:27:26.281Z,9.60
2023-04-28T04:30:02.228Z,9.50
2023-04-28T04:32:36.645Z,9.70
2023-04-28T04:35:11.153Z,9.70
2023-04-28T04:37:45.814Z,9.60
2023-04-28T04:40:20.174Z,9.60
2023-04-28T04:42:54.345Z,9.70
2023-04-28T04:45:30.683Z,9.60
2023-04-28T04:48:08.459Z,9.70
2023-04-28T04:50:43.792Z,9.80
2023-04-28T04:53:17.860Z,9.80
2023-04-28T04:55:52.024Z,9.70
2023-04-28T04:58:27.413Z,9.80
2023-04-28T05:01:03.329Z,9.80
2023-04-28T05:03:37.686Z,9.80
2023-04-28T05:06:12.607Z,9.80
2023-04-28T05:08:47.846Z,9.90
2023-04-28T05:11:22.033Z,9.90
2023-04-28T05:13:56.176Z,9.80
2023-04-28T05:16:33.601Z,9.80
2023-04-28T05:19:08.607Z,9.90
2023-04-28T05:21:42.936Z,9.90
2023-04-28T05:24:22.471Z,9.90
2023-04-28T05:27:00.389Z,10.00
2023-04-28T05:29:34.587Z,10.00
2023-04-28T05:32:10.869Z,10.00
2023-04-28T05:34:44.965Z,10.00
2023-04-28T05:37:19.260Z,10.00
2023-04-28T05:39:53.880Z,10.10
2023-04-28T05:42:28.848Z,10.20
2023-04-28T05:45:03.359Z,10.20
2023-04-28T05:47:39.087Z,10.20
2023-04-28T05:50:13.381Z,10.20
2023-04-28T05:52:47.490Z,10.20
2023-04-28T05:55:22.039Z,10.10
2023-04-28T05:57:56.159Z,10.20
2023-04-28T06:00:33.233Z,10.20
2023-04-28T06:03:11.200Z,10.20
2023-04-28T06:05:46.132Z,10.30
2023-04-28T06:08:20.907Z,10.30
2023-04-28T06:10:54.941Z,10.30
2023-04-28T06:13:31.534Z,10.30
2023-04-28T06:16:06.530Z,10.40
2023-04-28T06:18:42.137Z,10.40
2023-04-28T06:21:18.190Z,10.40
2023-04-28T06:23:52.452Z,10.40
2023-04-28T06:26:26.727Z,10.40
2023-04-28T06:29:00.815Z,10.60
2023-04-28T06:31:34.980Z,10.60
2023-04-28T06:34:10.516Z,10.60
2023-04-28T06:36:44.706Z,10.70
2023-04-28T06:39:18.828Z,10.70
2023-04-28T06:41:53.003Z,10.80
2023-04-28T06:44:27.314Z,10.80
2023-04-28T06:47:01.810Z,10.80
2023-04-28T06:49:37.348Z,10.90
2023-04-28T06:52:11.889Z,10.90
2023-04-28T06:54:46.388Z,10.90
2023-04-28T06:57:21.102Z,11.00
2023-04-28T06:59:56.278Z,11.00
2023-04-28T07:02:31.776Z,10.90
2023-04-28T07:05:08.863Z,11.00
2023-04-28T07:07:42.993Z,11.00
2023-04-28T07:10:17.224Z,11.00
2023-04-28T07:12:52.927Z,11.00
2023-04-28T07:15:27.017Z,10.90
2023-04-28T07:18:01.151Z,11.00
2023-04-28T07:20:36.703Z,11.10
2023-04-28T07:23:10.795Z,11.10
2023-04-28T07:25:45.248Z,11.20
2023-04-28T07:28:20.352Z,11.20
2023-04-28T07:30:54.797Z,11.20
2023-04-28T07:33:29.031Z,11.30
2023-04-28T07:36:04.893Z,11.40
2023-04-28T07:38:39.040Z,11.40
2023-04-28T07:41:13.282Z,11.40
2023-04-28T07:43:48.092Z,11.40
2023-04-28T07:46:22.896Z,11.40
2023-04-28T07:48:57.077Z,11.40
2023-04-28T07:51:33.250Z,11.50
2023-04-28T07:54:07.391Z,11.50
2023-04-28T07:56:41.587Z,11.50
2023-04-28T07:59:15.981Z,11.50
2023-04-28T08:01:50.299Z,11.50
2023-04-28T08:04:24.873Z,11.50
2023-04-28T08:07:01.755Z,11.50
2023-04-28T08:09:36.206Z,11.60
2023-04-28T08:12:10.606Z,11.50
2023-04-28T08:14:44.660Z,11.50
2023-04-28T08:17:19.238Z,11.60
2023-04-28T08:19:53.973Z,11.50
2023-04-28T08:22:29.908Z,11.50
2023-04-28T08:25:04.029Z,11.40
2023-04-28T08:27:39.992Z,11.40
2023-04-28T08:30:14.885Z,11.40
2023-04-28T08:32:48.932Z,11.40
2023-04-28T08:35:23.151Z,11.40
2023-04-28T08:37:58.806Z,11.40
2023-04-28T08:40:34.323Z,11.40
2023-04-28T08:43:10.197Z,11.50
2023-04-28T08:45:47.385Z,11.50
2023-04-28T08:48:23.585Z,11.50
2023-04-28T08:50:58.709Z,11.60
2023-04-28T08:53:59.441Z,11.60
2023-04-28T08:56:35.573Z,11.80
2023-04-28T08:59:09.672Z,11.80
2023-04-28T09:01:43.973Z,12.00
2023-04-28T09:04:19.553Z,12.00
2023-04-28T09:06:54.140Z,12.10
2023-04-28T09:09:37.033Z,12.10
2023-04-28T09:12:12.683Z,12.20
2023-04-28T09:14:46.758Z,12.20
2023-04-28T09:17:20.884Z,12.30
2023-04-28T09:19:54.902Z,12.30
2023-04-28T09:22:29.872Z,12.30
2023-04-28T09:25:15.223Z,12.40
2023-04-28T09:27:49.567Z,12.50
2023-04-28T09:30:41.435Z,12.60
2023-04-28T09:33:16.004Z,12.50
2023-04-28T09:35:50.438Z,12.50
2023-04-28T09:38:25.245Z,12.60
2023-04-28T09:41:02.929Z,12.60
2023-04-28T09:43:37.811Z,12.70
2023-04-28T09:46:12.044Z,12.80
2023-04-28T09:48:47.221Z,12.90
2023-04-28T09:51:22.493Z,13.10
2023-04-28T09:54:01.177Z,13.30
2023-04-28T09:56:40.855Z,13.50
2023-04-28T09:59:15.511Z,13.80
2023-04-28T10:01:50.937Z,14.00
2023-04-28T10:04:25.935Z,14.10
2023-04-28T10:07:00.635Z,14.20
2023-04-28T10:09:35.943Z,14.40
2023-04-28T10:12:11.599Z,14.70
2023-04-28T10:14:46.608Z,14.90
2023-04-28T10:17:21.457Z,15.20
2023-04-28T10:19:56.012Z,15.40
2023-04-28T10:22:54.375Z,15.60
2023-04-28T10:25:31.832Z,15.70
2023-04-28T10:28:10.095Z,15.80
2023-04-28T10:30:44.280Z,16.00
2023-04-28T10:33:28.290Z,16.00
2023-04-28T10:36:04.256Z,16.10
2023-04-28T10:39:12.473Z,16.10
2023-04-28T10:41:49.817Z,16.40
2023-04-28T10:44:44.655Z,16.40
2023-04-28T10:47:18.773Z,16.40
2023-04-28T10:50:12.358Z,16.40
2023-04-28T10:52:50.523Z,16.30
2023-04-28T10:55:37.236Z,16.40
2023-04-28T10:58:34.049Z,16.60
2023-04-28T11:01:32.523Z,16.80
2023-04-28T11:04:11.449Z,16.90
2023-04-28T11:06:47.759Z,17.00
2023-04-28T11:09:49.767Z,17.10
2023-04-28T11:12:23.890Z,17.10
2023-04-28T11:14:57.896Z,17.10
2023-04-28T11:17:42.825Z,17.20
2023-04-28T11:20:21.298Z,17.30
2023-04-28T11:22:55.490Z,17.30
2023-04-28T11:25:29.526Z,17.50
2023-04-28T11:28:07.003Z,17.70
2023-04-28T11:30:41.066Z,17.60
2023-04-28T11:33:17.009Z,17.30
2023-04-28T11:35:51.281Z,17.10
2023-04-28T11:38:25.888Z,16.90
2023-04-28T11:41:00.367Z,16.80
2023-04-28T11:43:46.490Z,16.60
2023-04-28T11:46:23.724Z,16.40
2023-04-28T11:49:07.913Z,16.40
2023-04-28T11:51:43.159Z,16.40
2023-04-28T11:54:22.804Z,16.40
2023-04-28T11:56:58.415Z,16.60
2023-04-28T11:59:34.780Z,16.60
2023-04-28T12:02:09.231Z,16.80
2023-04-28T12:04:45.267Z,17.10
2023-04-28T12:07:20.944Z,17.50
2023-04-28T12:10:14.354Z,17.80
2023-04-28T12:12:52.512Z,17.70
2023-04-28T12:15:42.065Z,17.50
2023-04-28T12:18:19.377Z,17.40
2023-04-28T12:20:54.860Z,17.20
2023-04-28T12:23:32.990Z,17.00
2023-04-28T12:26:07.401Z,16.90
2023-04-28T12:28:42.728Z,16.80
2023-04-28T12:31:16.870Z,16.60
2023-04-28T12:33:51.089Z,16.50
2023-04-28T12:36:26.676Z,16.40
2023-04-28T12:39:01.532Z,16.30
2023-04-28T12:41:35.766Z,16.30
2023-04-28T12:44:09.881Z,16.20
2023-04-28T12:46:44.560Z,16.30
2023-04-28T12:49:19.095Z,16.40
2023-04-28T12:51:54.823Z,16.70
2023-04-28T12:54:28.924Z,17.20
2023-04-28T12:57:03.490Z,17.60
2023-04-28T12:59:38.033Z,17.80
2023-04-28T13:02:12.299Z,17.90
2023-04-28T13:04:47.042Z,17.90
2023-04-28T13:07:23.305Z,18.00
2023-04-28T13:09:58.637Z,18.20
2023-04-28T13:12:33.515Z,18.40
2023-04-28T13:15:10.582Z,18.70
2023-04-28T13:17:46.584Z,18.80
2023-04-28T13:20:21.181Z,18.90
2023-04-28T13:22:56.626Z,19.00
2023-04-28T13:25:31.462Z,19.00
2023-04-28T13:28:05.852Z,18.90
2023-04-28T13:30:40.145Z,18.80
2023-04-28T13:33:14.443Z,18.90
2023-04-28T13:35:51.762Z,19.10
2023-04-28T13:38:28.046Z,19.20
2023-04-28T13:41:02.655Z,19.10
2023-04-28T13:43:36.723Z,19.00
2023-04-28T13:46:11.553Z,19.00
2023-04-28T13:48:45.800Z,18.90
2023-04-28T13:51:20.083Z,18.70
2023-04-28T13:53:55.822Z,18.60
2023-04-28T13:56:31.296Z,18.40
2023-04-28T13:59:06.584Z,18.20
2023-04-28T14:01:41.081Z,18.00
2023-04-28T14:04:15.420Z,17.90
2023-04-28T14:06:50.931Z,17.90
2023-04-28T14:09:26.617Z,17.90
2023-04-28T14:12:00.632Z,18.00
2023-04-28T14:14:35.073Z,18.20
2023-04-28T14:17:09.517Z,18.20
2023-04-28T14:19:43.675Z,18.30
2023-04-28T14:22:17.947Z,18.30
2023-04-28T14:24:53.808Z,18.40
2023-04-28T14:27:29.391Z,18.20
2023-04-28T14:30:03.626Z,18.00
2023-04-28T14:32:39.982Z,17.80
2023-04-28T14:35:15.581Z,17.50
2023-04-28T14:37:50.967Z,17.30
2023-04-28T14:40:26.870Z,17.10
2023-04-28T14:43:01.171Z,17.00
2023-04-28T14:45:37.878Z,17.10
2023-04-28T14:48:13.333Z,17.10
2023-04-28T14:50:47.969Z,17.20
2023-04-28T14:53:22.463Z,17.30
2023-04-28T14:56:07.565Z,17.40
2023-04-28T14:58:52.769Z,17.50
2023-04-28T15:01:27.087Z,17.50
2023-04-28T15:04:01.417Z,17.50
2023-04-28T15:06:36.327Z,17.40
2023-04-28T15:09:10.965Z,17.30
2023-04-28T15:11:47.044Z,17.10
2023-04-28T15:14:21.499Z,16.80
2023-04-28T15:16:56.903Z,16.60
2023-04-28T15:19:31.238Z,16.50
2023-04-28T15:22:06.041Z,16.40
2023-04-28T15:24:40.128Z,16.30
2023-04-28T15:27:15.722Z,16.30
2023-04-28T15:29:50.956Z,16.30
2023-04-28T15:32:25.207Z,16.30
2023-04-28T15:34:59.456Z,16.30
2023-04-28T15:37:43.904Z,16.20
2023-04-28T15:40:21.609Z,16.20
2023-04-28T15:42:57.368Z,16.20
2023-04-28T15:45:31.766Z,16.10
2023-04-28T15:48:07.698Z,16.10
2023-04-28T15:50:41.947Z,16.00
2023-04-28T15:53:16.341Z,16.00
2023-04-28T15:55:51.865Z,15.90
2023-04-28T15:58:27.726Z,15.90
2023-04-28T16:01:02.175Z,15.90
2023-04-28T16:03:36.648Z,15.80
2023-04-28T16:06:11.199Z,15.80
2023-04-28T16:08:45.400Z,15.70
2023-04-28T16:11:20.519Z,15.80
2023-04-28T16:13:56.282Z,15.70
2023-04-28T16:16:30.685Z,15.60
2023-04-28T16:19:05.600Z,15.50
2023-04-28T16:21:39.810Z,15.40
2023-04-28T16:24:13.889Z,15.40
2023-04-28T16:26:48.008Z,15.30
2023-04-28T16:29:23.656Z,15.20
2023-04-28T16:31:57.896Z,15.20
2023-04-28T16:34:32.402Z,15.10
2023-04-28T16:37:08.709Z,15.20
2023-04-28T16:39:42.989Z,15.20
2023-04-28T16:42:17.252Z,15.20
2023-04-28T16:44:54.073Z,15.30
2023-04-28T16:47:28.401Z,15.40
2023-04-28T16:50:03.326Z,15.50
2023-04-28T16:52:37.863Z,15.50
2023-04-28T16:55:12.121Z,15.60
2023-04-28T16:57:46.695Z,15.60
2023-04-28T17:00:23.726Z,15.50
2023-04-28T17:02:57.994Z,15.50
2023-04-28T17:05:33.787Z,15.40
2023-04-28T17:08:08.047Z,15.30
2023-04-28T17:10:43.320Z,15.30
2023-04-28T17:13:17.467Z,15.20
2023-04-28T17:15:57.842Z,15.20
2023-04-28T17:18:31.980Z,15.10
2023-04-28T17:21:06.676Z,15.10
2023-04-28T17:23:40.962Z,15.10
2023-04-28T17:26:16.395Z,15.10
2023-04-28T17:28:50.955Z,15.10
2023-04-28T17:31:27.440Z,15.20
2023-04-28T17:34:01.899Z,15.20
2023-04-28T17:36:36.141Z,15.10
2023-04-28T17:39:10.381Z,15.10
2023-04-28T17:41:45.096Z,15.10
2023-04-28T17:44:19.406Z,15.10
2023-04-28T17:46:55.305Z,15.10
2023-04-28T17:49:29.582Z,15.10
2023-04-28T17:52:04.152Z,15.10
2023-04-28T17:54:38.223Z,15.10
2023-04-28T17:57:14.495Z,15.10
2023-04-28T17:59:51.951Z,15.00
2023-04-28T18:02:27.682Z,14.90
2023-04-28T18:05:02.061Z,14.80
2023-04-28T18:07:36.755Z,14.70
2023-04-28T18:10:11.368Z,14.60
2023-04-28T18:12:46.325Z,14.50
2023-04-28T18:15:20.688Z,14.50
2023-04-28T18:17:56.821Z,14.40
2023-04-28T18:20:30.991Z,14.30
2023-04-28T18:23:05.380Z,14.20
2023-04-28T18:25:40.021Z,14.10
2023-04-28T18:28:14.168Z,14.00
2023-04-28T18:30:47.206Z,13.90
2023-04-28T18:33:25.818Z,13.80
2023-04-28T18:36:01.804Z,13.70
2023-04-28T18:38:36.757Z,13.60
2023-04-28T18:41:15.099Z,13.50
2023-04-28T18:43:49.823Z,13.50
2023-04-28T18:46:24.182Z,13.40
2023-04-28T18:48:59.688Z,13.30
2023-04-28T18:51:33.855Z,13.20
2023-04-28T18:54:08.035Z,13.20
2023-04-28T18:56:42.177Z,13.10
2023-04-28T18:59:16.621Z,13.00
2023-04-28T19:01:51.527Z,13.00
2023-04-28T19:04:27.241Z,12.90
2023-04-28T19:07:01.385Z,12.90
2023-04-28T19:09:35.704Z,12.80
2023-04-28T19:12:15.311Z,12.70
2023-04-28T19:14:49.297Z,12.70
2023-04-28T19:17:24.197Z,12.60
2023-04-28T19:19:59.899Z,12.60
2023-04-28T19:22:36.492Z,12.60
2023-04-28T19:25:11.191Z,12.50
2023-04-28T19:27:46.776Z,12.50
2023-04-28T19:30:21.036Z,12.40
2023-04-28T19:32:56.864Z,12.40
2023-04-28T19:35:33.412Z,12.40
2023-04-28T19:38:07.453Z,12.40
2023-04-28T19:40:41.573Z,12.30
2023-04-28T19:43:17.564Z,12.30
2023-04-28T19:45:51.971Z,12.30
2023-04-28T19:48:26.901Z,12.20
2023-04-28T19:51:02.365Z,12.20
2023-04-28T19:53:40.412Z,12.10
2023-04-28T19:56:14.598Z,12.10
2023-04-28T19:58:48.787Z,12.00
2023-04-28T20:01:23.528Z,12.00
2023-04-28T20:03:58.095Z,12.00
2023-04-28T20:06:34.128Z,12.00
2023-04-28T20:09:09.068Z,11.90
2023-04-28T20:11:43.188Z,11.80
2023-04-28T20:14:17.382Z,11.80
2023-04-28T20:16:53.887Z,11.80
2023-04-28T20:19:28.099Z,11.70
2023-04-28T20:22:08.356Z,11.70
2023-04-28T20:24:42.939Z,11.70
2023-04-28T20:27:18.259Z,11.70
2023-04-28T20:29:54.542Z,11.60
2023-04-28T20:32:29.242Z,11.70
2023-04-28T20:35:05.733Z,11.60
2023-04-28T20:37:42.299Z,11.60
2023-04-28T20:40:16.529Z,11.60
2023-04-28T20:42:55.226Z,11.50
2023-04-28T20:45:30.274Z,11.50
2023-04-28T20:48:05.035Z,11.50
2023-04-28T20:50:41.613Z,11.50
2023-04-28T20:53:17.338Z,11.50
2023-04-28T20:55:53.215Z,11.50
2023-04-28T20:58:28.177Z,11.40
2023-04-28T21:01:03.360Z,11.40
2023-04-28T21:03:41.216Z,11.40
2023-04-28T21:06:15.898Z,11.40
2023-04-28T21:08:52.877Z,11.40
2023-04-28T21:11:27.743Z,11.30
2023-04-28T21:14:02.737Z,11.40
2023-04-28T21:16:38.156Z,11.40
2023-04-28T21:19:16.531Z,11.40
2023-04-28T21:21:52.296Z,11.50
2023-04-28T21:24:28.404Z,11.50
2023-04-28T21:27:04.487Z,11.50
2023-04-28T21:29:40.541Z,11.50
2023-04-28T21:32:15.135Z,11.60
2023-04-28T21:34:51.870Z,11.60
2023-04-28T21:37:27.491Z,11.50
2023-04-28T21:40:03.620Z,11.60
2023-04-28T21:42:38.022Z,11.60
2023-04-28T21:45:15.774Z,11.70
2023-04-28T21:47:53.047Z,11.70
2023-04-28T21:50:28.961Z,11.70
2023-04-28T21:53:03.466Z,11.70
2023-04-28T21:55:43.380Z,11.80
2023-04-28T21:58:18.434Z,11.80
2023-04-28T22:00:55.232Z,11.80
2023-04-28T22:03:30.103Z,11.70
2023-04-28T22:06:05.356Z,11.70
2023-04-28T22:08:39.671Z,11.70
2023-04-28T22:11:15.030Z,11.70
2023-04-28T22:13:49.094Z,11.70
2023-04-28T22:16:24.032Z,11.70
2023-04-28T22:18:58.636Z,11.70
2023-04-28T22:21:33.349Z,11.70
2023-04-28T22:24:08.249Z,11.70
2023-04-28T22:26:43.813Z,11.60
2023-04-28T22:29:18.715Z,11.60
2023-04-28T22:31:53.616Z,11.60
2023-04-28T22:34:27.688Z,11.50
2023-04-28T22:37:01.751Z,11.50
2023-04-28T22:39:36.507Z,11.40
2023-04-28T22:42:11.922Z,11.30
2023-04-28T22:44:46.268Z,11.30
2023-04-28T22:47:20.992Z,11.30
2023-04-28T22:49:59.430Z,11.20
2023-04-28T22:52:33.559Z,11.20
2023-04-28T22:55:08.805Z,11.10
2023-04-28T22:57:45.127Z,11.10
2023-04-28T23:00:19.758Z,11.00
2023-04-28T23:03:00.502Z,10.90
2023-04-28T23:05:38.839Z,10.80
2023-04-28T23:08:12.875Z,10.80
2023-04-28T23:10:47.065Z,10.70
2023-04-28T23:13:22.594Z,10.70
2023-04-28T23:16:00.331Z,10.70
2023-04-28T23:18:34.840Z,10.70
2023-04-28T23:21:09.075Z,10.70
2023-04-28T23:23:43.206Z,10.70
2023-04-28T23:26:17.281Z,10.70
2023-04-28T23:28:53.866Z,10.60
2023-04-28T23:31:27.938Z,10.60
2023-04-28T23:34:03.036Z,10.60
2023-04-28T23:36:38.148Z,10.60
2023-04-28T23:39:12.136Z,10.50
2023-04-28T23:41:46.309Z,10.60
2023-04-28T23:44:21.752Z,10.50
2023-04-28T23:46:56.609Z,10.50
2023-04-28T23:49:30.706Z,10.50
2023-04-28T23:52:04.912Z,10.50
2023-04-28T23:54:39.148Z,10.50
2023-04-28T23:57:13.256Z,10.50
2023-04-28T23:59:48.927Z,10.50
